createdAt,value
2022-10-29T00:01:17.749Z,14.30
2022-10-29T00:03:44.950Z,14.30
2022-10-29T00:06:18.945Z,14.20
2022-10-29T00:08:51.703Z,14.20
2022-10-29T00:11:26.557Z,14.20
2022-10-29T00:13:56.383Z,14.20
2022-10-29T00:16:27.063Z,14.10
2022-10-29T00:19:02.053Z,14.10
2022-10-29T00:21:39.845Z,14.20
2022-10-29T00:24:10.791Z,14.10
2022-10-29T00:26:38.203Z,14.10
2022-10-29T00:29:08.161Z,14.10
2022-10-29T00:31:35.354Z,14.10
2022-10-29T00:34:10.312Z,14.10
2022-10-29T00:36:37.911Z,14.00
2022-10-29T00:39:05.223Z,14.00
2022-10-29T00:41:35.105Z,13.90
2022-10-29T00:44:22.970Z,13.90
2022-10-29T00:46:59.149Z,13.90
2022-10-29T00:49:27.606Z,13.80
2022-10-29T00:51:55.632Z,13.80
2022-10-29T00:54:28.971Z,13.80
2022-10-29T00:57:14.552Z,13.80
2022-10-29T00:59:43.945Z,13.70
2022-10-29T01:02:11.615Z,13.70
2022-10-29T01:04:42.897Z,13.70
2022-10-29T01:07:12.924Z,13.70
2022-10-29T01:09:43.783Z,13.70
2022-10-29T01:12:38.140Z,13.60
2022-10-29T01:15:29.632Z,13.60
2022-10-29T01:18:21.184Z,13.60
2022-10-29T01:21:18.768Z,13.60
2022-10-29T01:24:29.000Z,13.50
2022-10-29T01:27:05.162Z,13.40
2022-10-29T01:30:09.586Z,13.40
2022-10-29T01:32:39.411Z,13.40
2022-10-29T01:35:19.121Z,13.40
2022-10-29T01:38:04.999Z,13.30
2022-10-29T01:40:42.902Z,13.30
2022-10-29T01:43:25.734Z,13.30
2022-10-29T01:46:20.620Z,13.30
2022-10-29T01:48:52.013Z,13.20
2022-10-29T01:51:23.455Z,13.20
2022-10-29T01:53:52.108Z,13.20
2022-10-29T01:56:19.357Z,13.10
2022-10-29T01:58:56.372Z,13.10
2022-10-29T02:01:41.718Z,13.10
2022-10-29T02:04:33.310Z,13.10
2022-10-29T02:07:18.959Z,13.00
2022-10-29T02:10:19.202Z,13.10
2022-10-29T02:12:54.630Z,13.00
2022-10-29T02:15:38.027Z,13.00
2022-10-29T02:18:10.687Z,13.00
2022-10-29T02:20:43.045Z,12.90
2022-10-29T02:23:10.675Z,12.90
2022-10-29T02:25:37.877Z,12.90
2022-10-29T02:28:07.361Z,12.90
2022-10-29T02:30:37.024Z,12.90
2022-10-29T02:33:04.556Z,12.90
2022-10-29T02:35:34.163Z,12.90
2022-10-29T02:38:04.665Z,12.90
2022-10-29T02:40:31.932Z,12.90
2022-10-29T02:43:02.195Z,12.90
2022-10-29T02:45:32.056Z,12.90
2022-10-29T02:47:59.564Z,12.90
2022-10-29T02:50:26.916Z,12.90
2022-10-29T02:52:54.279Z,12.90
2022-10-29T02:55:23.855Z,12.90
2022-10-29T02:57:51.074Z,13.00
2022-10-29T03:00:18.907Z,13.00
2022-10-29T03:02:46.217Z,13.00
2022-10-29T03:05:13.713Z,13.00
2022-10-29T03:07:40.898Z,13.00
2022-10-29T03:10:11.021Z,13.00
2022-10-29T03:12:38.311Z,13.00
2022-10-29T03:15:07.280Z,13.00
2022-10-29T03:17:34.527Z,13.00
2022-10-29T03:20:01.663Z,13.00
2022-10-29T03:22:28.921Z,13.00
2022-10-29T03:24:58.741Z,13.00
2022-10-29T03:27:25.984Z,13.00
2022-10-29T03:29:53.238Z,13.00
2022-10-29T03:32:20.491Z,13.00
2022-10-29T03:34:57.443Z,13.00
2022-10-29T03:37:27.047Z,13.00
2022-10-29T03:39:56.394Z,13.00
2022-10-29T03:42:23.951Z,13.00
2022-10-29T03:44:53.652Z,13.00
2022-10-29T03:47:20.786Z,13.00
2022-10-29T03:49:47.947Z,13.00
2022-10-29T03:52:15.062Z,13.00
2022-10-29T03:54:42.566Z,13.00
2022-10-29T03:57:09.731Z,13.00
2022-10-29T03:59:39.970Z,13.00
2022-10-29T04:02:14.609Z,13.00
2022-10-29T04:04:44.096Z,13.00
2022-10-29T04:07:12.532Z,13.00
2022-10-29T04:09:39.898Z,13.00
2022-10-29T04:12:08.782Z,13.00
2022-10-29T04:14:38.101Z,13.10
2022-10-29T04:17:11.768Z,13.10
2022-10-29T04:19:39.074Z,13.10
2022-10-29T04:30:30.263Z,13.10
2022-10-29T04:32:59.580Z,13.10
2022-10-29T04:35:28.585Z,13.10
2022-10-29T04:37:55.929Z,13.10
2022-10-29T04:40:26.055Z,13.10
2022-10-29T04:42:53.363Z,13.10
2022-10-29T04:45:20.693Z,13.00
2022-10-29T04:47:47.793Z,13.00
2022-10-29T04:50:14.969Z,13.00
2022-10-29T04:52:43.170Z,13.00
2022-10-29T04:55:13.225Z,12.90
2022-10-29T04:57:40.367Z,12.90
2022-10-29T05:00:07.961Z,12.90
2022-10-29T05:02:36.511Z,12.90
2022-10-29T05:05:03.690Z,12.90
2022-10-29T05:07:30.837Z,12.80
2022-10-29T05:09:58.000Z,12.80
2022-10-29T05:12:25.106Z,12.90
2022-10-29T05:14:52.312Z,12.80
2022-10-29T05:17:19.403Z,12.90
2022-10-29T05:19:46.556Z,12.90
2022-10-29T05:22:13.710Z,12.90
2022-10-29T05:24:40.789Z,12.90
2022-10-29T05:27:08.351Z,12.90
2022-10-29T05:29:35.456Z,12.90
2022-10-29T05:32:04.983Z,12.90
2022-10-29T05:34:35.285Z,12.90
2022-10-29T05:37:05.511Z,13.00
2022-10-29T05:39:34.912Z,13.00
2022-10-29T05:42:02.003Z,13.00
2022-10-29T05:44:29.250Z,13.00
2022-10-29T05:46:56.491Z,13.10
2022-10-29T05:49:23.658Z,13.10
2022-10-29T05:51:54.040Z,13.10
2022-10-29T05:54:21.537Z,13.10
2022-10-29T05:56:49.156Z,13.10
2022-10-29T05:59:16.359Z,13.10
2022-10-29T06:01:44.838Z,13.10
2022-10-29T06:04:12.054Z,13.10
2022-10-29T06:06:39.286Z,13.10
2022-10-29T06:09:08.043Z,13.10
2022-10-29T06:11:35.037Z,13.10
2022-10-29T06:14:02.381Z,13.10
2022-10-29T06:16:29.479Z,13.00
2022-10-29T06:18:56.639Z,13.10
2022-10-29T06:21:23.869Z,13.10
2022-10-29T06:23:54.111Z,13.10
2022-10-29T06:26:23.772Z,13.10
2022-10-29T06:28:51.155Z,13.10
2022-10-29T06:31:18.258Z,13.20
2022-10-29T06:33:48.482Z,13.20
2022-10-29T06:36:15.556Z,13.20
2022-10-29T06:38:42.654Z,13.30
2022-10-29T06:41:16.605Z,13.30
2022-10-29T06:43:43.746Z,13.30
2022-10-29T06:46:10.811Z,13.40
2022-10-29T06:48:38.160Z,13.40
2022-10-29T06:51:05.398Z,13.40
2022-10-29T06:53:32.620Z,13.50
2022-10-29T06:56:00.173Z,13.50
2022-10-29T06:58:27.407Z,13.50
2022-10-29T07:00:54.918Z,13.50
2022-10-29T07:03:24.565Z,13.50
2022-10-29T07:05:59.263Z,13.60
2022-10-29T07:08:27.098Z,13.60
2022-10-29T07:10:54.805Z,13.60
2022-10-29T07:13:24.560Z,13.70
2022-10-29T07:15:51.719Z,13.80
2022-10-29T07:18:19.112Z,13.80
2022-10-29T07:20:49.422Z,13.90
2022-10-29T07:23:17.160Z,13.90
2022-10-29T07:28:51.288Z,14.10
2022-10-29T07:31:18.488Z,14.20
2022-10-29T07:33:45.898Z,14.30
2022-10-29T07:36:25.941Z,14.30
2022-10-29T07:39:10.410Z,14.40
2022-10-29T07:41:59.306Z,14.50
2022-10-29T07:44:38.140Z,14.50
2022-10-29T07:47:15.921Z,14.60
2022-10-29T07:49:57.259Z,14.60
2022-10-29T07:52:30.256Z,14.70
2022-10-29T07:55:06.562Z,14.70
2022-10-29T07:57:33.924Z,14.70
2022-10-29T08:04:42.278Z,14.80
2022-10-29T08:10:50.122Z,14.80
2022-10-29T08:13:27.796Z,14.80
2022-10-29T08:15:58.278Z,14.90
2022-10-29T08:23:38.277Z,15.10
2022-10-29T08:33:44.098Z,15.40
2022-10-29T08:36:15.063Z,15.40
2022-10-29T08:38:42.394Z,15.40
2022-10-29T08:41:33.757Z,15.50
2022-10-29T08:44:14.614Z,15.60
2022-10-29T08:47:13.661Z,15.60
2022-10-29T08:49:51.860Z,15.70
2022-10-29T08:52:29.221Z,15.70
2022-10-29T08:55:23.847Z,15.70
2022-10-29T08:58:08.340Z,15.80
2022-10-29T09:00:42.228Z,15.80
2022-10-29T09:03:13.004Z,15.80
2022-10-29T09:06:06.474Z,15.80
2022-10-29T09:08:45.087Z,15.90
2022-10-29T09:11:50.886Z,15.90
2022-10-29T09:15:03.855Z,16.00
2022-10-29T09:17:55.965Z,16.00
2022-10-29T09:20:37.065Z,16.10
2022-10-29T09:23:44.154Z,16.20
2022-10-29T09:26:20.417Z,16.40
2022-10-29T09:29:00.805Z,16.50
2022-10-29T09:31:45.125Z,16.60
2022-10-29T09:34:26.006Z,16.70
2022-10-29T09:36:56.429Z,16.80
2022-10-29T09:39:38.736Z,16.80
2022-10-29T09:42:17.175Z,16.90
2022-10-29T09:45:02.625Z,17.00
2022-10-29T09:47:52.593Z,17.10
2022-10-29T09:50:44.073Z,17.10
2022-10-29T09:53:13.987Z,17.20
2022-10-29T09:55:44.902Z,17.10
2022-10-29T09:58:26.963Z,17.20
2022-10-29T10:01:04.675Z,17.30
2022-10-29T10:06:31.850Z,17.30
2022-10-29T10:09:08.750Z,17.30
2022-10-29T10:12:00.062Z,17.40
2022-10-29T10:14:28.022Z,17.40
2022-10-29T10:17:04.010Z,17.40
2022-10-29T10:19:38.952Z,17.50
2022-10-29T10:22:16.555Z,17.50
2022-10-29T10:24:44.077Z,17.50
2022-10-29T10:27:29.558Z,17.60
2022-10-29T10:30:15.994Z,17.60
2022-10-29T10:32:46.149Z,17.60
2022-10-29T10:35:33.700Z,17.60
2022-10-29T10:38:15.091Z,17.70
2022-10-29T10:40:54.309Z,17.80
2022-10-29T10:43:24.753Z,17.90
2022-10-29T10:45:58.953Z,17.90
2022-10-29T10:51:25.206Z,17.90
2022-10-29T10:56:58.701Z,18.00
2022-10-29T10:59:47.264Z,18.20
2022-10-29T11:02:22.090Z,18.30
2022-10-29T11:05:06.828Z,18.50
2022-10-29T11:07:41.781Z,18.60
2022-10-29T11:10:23.319Z,18.70
2022-10-29T11:12:57.725Z,18.80
2022-10-29T11:15:41.994Z,18.90
2022-10-29T11:18:21.637Z,19.00
2022-10-29T11:21:11.000Z,19.10
2022-10-29T11:24:08.116Z,19.10
2022-10-29T11:26:50.105Z,19.20
2022-10-29T11:29:28.318Z,19.30
2022-10-29T11:32:13.902Z,19.30
2022-10-29T11:34:45.671Z,19.40
2022-10-29T11:40:24.476Z,19.50
2022-10-29T11:42:54.814Z,19.50
2022-10-29T11:45:43.247Z,19.40
2022-10-29T11:51:09.398Z,19.30
2022-10-29T11:54:05.144Z,19.20
2022-10-29T11:56:41.501Z,19.20
2022-10-29T11:59:33.369Z,19.10
2022-10-29T12:02:03.610Z,19.10
2022-10-29T12:04:44.089Z,19.10
2022-10-29T12:08:11.415Z,19.20
2022-10-29T12:11:04.776Z,19.30
2022-10-29T12:14:00.508Z,19.40
2022-10-29T12:17:20.106Z,19.60
2022-10-29T12:20:11.227Z,19.70
2022-10-29T12:23:05.242Z,19.80
2022-10-29T12:26:21.509Z,19.90
2022-10-29T12:28:58.533Z,19.90
2022-10-29T12:31:43.798Z,19.90
2022-10-29T12:34:39.867Z,19.80
2022-10-29T12:41:54.372Z,20.00
2022-10-29T12:44:23.872Z,20.10
2022-10-29T12:47:12.613Z,20.20
2022-10-29T12:49:43.075Z,20.30
2022-10-29T12:52:54.002Z,20.30
2022-10-29T12:55:57.140Z,20.40
2022-10-29T12:58:45.152Z,20.30
2022-10-29T13:05:23.429Z,20.10
2022-10-29T13:08:05.105Z,20.00
2022-10-29T13:10:41.546Z,20.00
2022-10-29T13:13:17.993Z,20.00
2022-10-29T13:16:02.490Z,20.00
2022-10-29T13:19:00.433Z,20.10
2022-10-29T13:21:57.252Z,20.20
2022-10-29T13:24:25.802Z,20.30
2022-10-29T13:30:14.554Z,20.40
2022-10-29T13:32:44.009Z,20.50
2022-10-29T13:35:20.561Z,20.50
2022-10-29T13:37:50.288Z,20.60
2022-10-29T13:40:23.720Z,20.60
2022-10-29T13:43:03.155Z,20.70
2022-10-29T13:45:35.338Z,20.80
2022-10-29T13:48:04.790Z,20.90
2022-10-29T13:50:36.913Z,20.90
2022-10-29T13:53:14.908Z,21.00
2022-10-29T13:55:55.460Z,21.00
2022-10-29T13:58:36.478Z,21.00
2022-10-29T14:01:11.896Z,21.00
2022-10-29T14:04:14.011Z,20.90
2022-10-29T14:06:42.085Z,20.80
2022-10-29T14:09:28.967Z,20.70
2022-10-29T14:12:06.341Z,20.70
2022-10-29T14:14:43.784Z,20.70
2022-10-29T14:17:20.155Z,20.60
2022-10-29T14:20:03.270Z,20.60
2022-10-29T14:22:35.784Z,20.60
2022-10-29T14:25:32.999Z,20.50
2022-10-29T14:28:10.445Z,20.50
2022-10-29T14:30:37.401Z,20.50
2022-10-29T14:33:24.908Z,20.40
2022-10-29T14:35:56.245Z,20.40
2022-10-29T14:38:31.622Z,20.30
2022-10-29T14:40:58.772Z,20.30
2022-10-29T14:43:28.670Z,20.20
2022-10-29T14:46:29.651Z,20.20
2022-10-29T14:49:03.017Z,20.20
2022-10-29T14:51:49.693Z,20.10
2022-10-29T14:54:28.034Z,20.10
2022-10-29T14:57:00.705Z,20.10
2022-10-29T14:59:30.155Z,20.00
2022-10-29T15:02:17.137Z,20.00
2022-10-29T15:05:22.920Z,19.90
2022-10-29T15:07:50.545Z,19.90
2022-10-29T15:10:23.056Z,19.80
2022-10-29T15:12:55.758Z,19.80
2022-10-29T15:15:29.406Z,19.80
2022-10-29T15:18:14.881Z,19.70
2022-10-29T15:20:41.857Z,19.60
2022-10-29T15:23:34.156Z,19.60
2022-10-29T15:26:05.338Z,19.50
2022-10-29T15:28:38.908Z,19.40
2022-10-29T15:31:06.496Z,19.30
2022-10-29T15:33:37.191Z,19.20
2022-10-29T15:36:05.551Z,19.20
2022-10-29T15:38:35.132Z,19.10
2022-10-29T15:41:08.269Z,19.10
2022-10-29T15:43:48.353Z,19.00
2022-10-29T15:46:29.774Z,19.00
2022-10-29T15:48:57.017Z,18.90
2022-10-29T15:51:30.444Z,18.80
2022-10-29T15:54:02.311Z,18.80
2022-10-29T15:56:31.850Z,18.70
2022-10-29T15:59:00.577Z,18.70
2022-10-29T16:04:34.122Z,18.60
2022-10-29T16:07:01.364Z,18.50
2022-10-29T16:09:29.495Z,18.50
2022-10-29T16:14:37.351Z,18.40
2022-10-29T16:17:10.288Z,18.30
2022-10-29T16:19:37.228Z,18.30
2022-10-29T16:22:04.261Z,18.20
2022-10-29T16:24:31.378Z,18.20
2022-10-29T16:26:58.500Z,18.10
2022-10-29T16:29:25.603Z,18.10
2022-10-29T16:31:52.649Z,18.00
2022-10-29T16:34:23.739Z,18.00
2022-10-29T16:36:51.736Z,17.90
2022-10-29T16:39:18.675Z,17.90
2022-10-29T16:41:45.785Z,17.80
2022-10-29T16:44:13.819Z,17.80
2022-10-29T16:46:43.766Z,17.80
2022-10-29T16:49:10.755Z,17.80
2022-10-29T16:51:38.240Z,17.70
2022-10-29T16:54:05.187Z,17.70
2022-10-29T16:56:32.059Z,17.70
2022-10-29T16:59:01.847Z,17.70
2022-10-29T17:01:29.124Z,17.70
2022-10-29T17:03:56.240Z,17.70
2022-10-29T17:06:23.200Z,17.70
2022-10-29T17:08:50.171Z,17.60
2022-10-29T17:11:17.320Z,17.60
2022-10-29T17:13:44.811Z,17.60
2022-10-29T17:16:16.590Z,17.50
2022-10-29T17:18:43.819Z,17.50
2022-10-29T17:21:59.328Z,17.40
2022-10-29T17:24:27.266Z,17.50
2022-10-29T17:26:54.615Z,17.40
2022-10-29T17:29:24.310Z,17.40
2022-10-29T17:31:51.620Z,17.40
2022-10-29T17:38:23.381Z,17.50
2022-10-29T17:40:50.443Z,17.40
2022-10-29T17:43:17.661Z,17.40
2022-10-29T17:45:47.115Z,17.40
2022-10-29T17:48:14.260Z,17.40
2022-10-29T17:50:41.281Z,17.40
2022-10-29T17:53:10.815Z,17.40
2022-10-29T17:55:37.859Z,17.40
2022-10-29T17:58:18.146Z,17.40
2022-10-29T18:00:55.073Z,17.30
2022-10-29T18:03:29.480Z,17.30
2022-10-29T18:06:01.392Z,17.20
2022-10-29T18:08:31.907Z,17.20
2022-10-29T18:11:08.343Z,17.10
2022-10-29T18:14:53.417Z,17.00
2022-10-29T18:17:43.757Z,17.00
2022-10-29T18:20:11.422Z,16.80
2022-10-29T18:22:41.592Z,16.80
2022-10-29T18:25:13.061Z,16.70
2022-10-29T18:27:41.124Z,16.70
2022-10-29T18:33:12.776Z,16.60
2022-10-29T18:35:39.826Z,16.50
2022-10-29T18:38:12.242Z,16.50
2022-10-29T18:40:42.358Z,16.40
2022-10-29T18:43:09.519Z,16.40
2022-10-29T18:45:36.843Z,16.40
2022-10-29T18:48:06.849Z,16.40
2022-10-29T18:50:46.755Z,16.30
2022-10-29T18:53:15.379Z,16.30
2022-10-29T18:55:53.310Z,16.20
2022-10-29T18:58:29.539Z,16.20
2022-10-29T19:01:05.262Z,16.20
2022-10-29T19:03:41.220Z,16.10
2022-10-29T19:06:12.412Z,16.00
2022-10-29T19:08:45.008Z,16.00
2022-10-29T19:15:33.001Z,15.90
2022-10-29T19:18:00.601Z,15.80
2022-10-29T19:20:54.479Z,15.80
2022-10-29T19:31:49.725Z,15.70
2022-10-29T19:34:32.634Z,15.70
2022-10-29T19:37:05.796Z,15.70
2022-10-29T19:39:33.560Z,15.70
2022-10-29T19:42:14.432Z,15.80
2022-10-29T19:49:08.411Z,15.80
2022-10-29T19:51:38.434Z,15.80
2022-10-29T19:54:09.217Z,15.90
2022-10-29T19:56:39.195Z,16.00
2022-10-29T19:59:38.271Z,16.00
2022-10-29T20:02:19.061Z,16.10
2022-10-29T20:04:48.522Z,16.10
2022-10-29T20:07:15.802Z,16.10
2022-10-29T20:09:42.876Z,16.20
2022-10-29T20:12:09.950Z,16.20
2022-10-29T20:15:00.550Z,16.20
2022-10-29T20:18:19.168Z,16.20
2022-10-29T20:20:59.727Z,16.20
2022-10-29T20:23:48.760Z,16.20
2022-10-29T20:26:15.750Z,16.10
2022-10-29T20:28:42.895Z,16.10
2022-10-29T20:31:19.606Z,16.10
2022-10-29T20:33:54.608Z,16.10
2022-10-29T20:36:49.947Z,16.00
2022-10-29T20:39:30.842Z,16.00
2022-10-29T20:42:03.730Z,15.90
2022-10-29T20:44:30.855Z,15.90
2022-10-29T20:46:57.964Z,15.90
2022-10-29T20:49:25.032Z,15.80
2022-10-29T20:51:52.089Z,15.80
2022-10-29T20:54:19.454Z,15.80
2022-10-29T20:56:48.799Z,15.70
2022-10-29T20:59:23.142Z,15.70
2022-10-29T21:01:52.025Z,15.70
2022-10-29T21:04:19.199Z,15.70
2022-10-29T21:06:46.251Z,15.70
2022-10-29T21:09:23.049Z,15.60
2022-10-29T21:11:50.494Z,15.60
2022-10-29T21:14:17.796Z,15.60
2022-10-29T21:16:44.929Z,15.50
2022-10-29T21:19:11.931Z,15.50
2022-10-29T21:21:40.199Z,15.40
2022-10-29T21:24:07.573Z,15.40
2022-10-29T21:26:34.613Z,15.40
2022-10-29T21:29:04.613Z,15.40
2022-10-29T21:31:31.592Z,15.30
2022-10-29T21:33:58.572Z,15.30
2022-10-29T21:36:25.657Z,15.30
2022-10-29T21:39:06.395Z,15.30
2022-10-29T21:41:33.486Z,15.30
2022-10-29T21:44:00.416Z,15.30
2022-10-29T21:46:27.523Z,15.20
2022-10-29T21:48:56.545Z,15.20
2022-10-29T21:51:23.574Z,15.20
2022-10-29T21:53:50.551Z,15.20
2022-10-29T21:56:17.660Z,15.20
2022-10-29T21:58:44.765Z,15.20
2022-10-29T22:01:16.698Z,15.10
2022-10-29T22:03:45.804Z,15.10
2022-10-29T22:06:22.883Z,15.10
2022-10-29T22:09:10.032Z,15.10
2022-10-29T22:11:37.012Z,15.10
2022-10-29T22:14:04.188Z,15.00
2022-10-29T22:16:32.597Z,15.00
2022-10-29T22:18:59.684Z,15.00
2022-10-29T22:21:26.724Z,15.00
2022-10-29T22:23:55.823Z,15.00
2022-10-29T22:26:28.909Z,14.90
2022-10-29T22:28:58.481Z,14.90
2022-10-29T22:31:25.837Z,14.90
2022-10-29T22:33:53.117Z,14.80
2022-10-29T22:36:22.706Z,14.80
2022-10-29T22:38:54.656Z,14.80
2022-10-29T22:41:22.537Z,14.80
2022-10-29T22:43:49.902Z,14.80
2022-10-29T22:46:18.401Z,14.70
2022-10-29T22:48:45.974Z,14.70
2022-10-29T22:51:33.911Z,14.70
2022-10-29T22:54:01.195Z,14.60
2022-10-29T22:56:30.440Z,14.60
2022-10-29T22:58:57.697Z,14.60
2022-10-29T23:01:33.648Z,14.50
2022-10-29T23:04:03.234Z,14.50
2022-10-29T23:06:30.840Z,14.50
2022-10-29T23:08:58.688Z,14.50
2022-10-29T23:11:30.697Z,14.40
2022-10-29T23:13:59.489Z,14.40
2022-10-29T23:16:29.168Z,14.30
2022-10-29T23:18:58.334Z,14.30
2022-10-29T23:21:25.993Z,14.30
2022-10-29T23:23:53.703Z,14.20
2022-10-29T23:26:24.835Z,14.20
2022-10-29T23:28:55.360Z,14.20
2022-10-29T23:31:25.276Z,14.20
2022-10-29T23:33:56.718Z,14.10
2022-10-29T23:36:25.275Z,14.10
2022-10-29T23:39:02.491Z,14.00
2022-10-29T23:41:31.131Z,14.00
2022-10-29T23:43:58.793Z,14.00
2022-10-29T23:46:25.762Z,14.00
2022-10-29T23:48:52.749Z,14.00
2022-10-29T23:51:19.983Z,13.90
2022-10-29T23:53:50.278Z,13.90
2022-10-29T23:56:20.232Z,13.90
2022-10-29T23:58:47.233Z,13.90
